sensor_id;sensor_type;location;lat;lon;timestamp;temperature;humidity
14924;DHT22;7554;43.600;1.480;2022-09-09T00:00:19;21.20;1.00
14924;DHT22;7554;43.600;1.480;2022-09-09T00:02:55;21.10;1.00
14924;DHT22;7554;43.600;1.480;2022-09-09T00:05:31;21.20;1.00
14924;DHT22;7554;43.600;1.480;2022-09-09T00:08:02;21.20;1.00
14924;DHT22;7554;43.600;1.480;2022-09-09T00:10:37;21.20;1.00
14924;DHT22;7554;43.600;1.480;2022-09-09T00:13:14;21.20;1.00
14924;DHT22;7554;43.600;1.480;2022-09-09T00:15:49;21.20;1.00
14924;DHT22;7554;43.600;1.480;2022-09-09T00:18:23;21.20;1.00
14924;DHT22;7554;43.600;1.480;2022-09-09T00:20:57;21.20;1.00
14924;DHT22;7554;43.600;1.480;2022-09-09T00:23:27;21.30;1.00
14924;DHT22;7554;43.600;1.480;2022-09-09T00:26:03;21.30;1.00
14924;DHT22;7554;43.600;1.480;2022-09-09T00:28:38;21.20;1.00
14924;DHT22;7554;43.600;1.480;2022-09-09T00:31:12;21.20;1.00
14924;DHT22;7554;43.600;1.480;2022-09-09T00:33:40;21.20;1.00
14924;DHT22;7554;43.600;1.480;2022-09-09T00:36:13;21.20;1.00
14924;DHT22;7554;43.600;1.480;2022-09-09T00:38:45;21.20;1.00
14924;DHT22;7554;43.600;1.480;2022-09-09T00:41:20;21.20;1.00
14924;DHT22;7554;43.600;1.480;2022-09-09T00:43:56;21.20;1.00
14924;DHT22;7554;43.600;1.480;2022-09-09T00:47:12;21.20;1.00
14924;DHT22;7554;43.600;1.480;2022-09-09T00:49:57;21.30;1.00
14924;DHT22;7554;43.600;1.480;2022-09-09T00:52:34;21.20;1.00
14924;DHT22;7554;43.600;1.480;2022-09-09T00:55:08;21.20;1.00
14924;DHT22;7554;43.600;1.480;2022-09-09T00:57:42;21.30;1.00
14924;DHT22;7554;43.600;1.480;2022-09-09T01:00:21;21.20;1.00
14924;DHT22;7554;43.600;1.480;2022-09-09T01:02:56;21.20;1.00
14924;DHT22;7554;43.600;1.480;2022-09-09T01:05:34;21.20;1.00
14924;DHT22;7554;43.600;1.480;2022-09-09T01:08:09;21.20;1.00
14924;DHT22;7554;43.600;1.480;2022-09-09T01:10:47;21.20;1.00
14924;DHT22;7554;43.600;1.480;2022-09-09T01:13:22;21.20;1.00
14924;DHT22;7554;43.600;1.480;2022-09-09T01:15:50;21.20;1.00
14924;DHT22;7554;43.600;1.480;2022-09-09T01:18:21;21.20;1.00
14924;DHT22;7554;43.600;1.480;2022-09-09T01:20:55;21.20;1.00
14924;DHT22;7554;43.600;1.480;2022-09-09T01:23:45;21.20;1.00
14924;DHT22;7554;43.600;1.480;2022-09-09T01:26:28;21.20;1.00
14924;DHT22;7554;43.600;1.480;2022-09-09T01:28:57;21.30;1.00
14924;DHT22;7554;43.600;1.480;2022-09-09T01:31:28;21.20;1.00
14924;DHT22;7554;43.600;1.480;2022-09-09T01:33:57;21.20;1.00
14924;DHT22;7554;43.600;1.480;2022-09-09T01:36:31;21.20;1.00
14924;DHT22;7554;43.600;1.480;2022-09-09T01:39:00;21.20;1.00
14924;DHT22;7554;43.600;1.480;2022-09-09T01:41:29;21.20;1.00
14924;DHT22;7554;43.600;1.480;2022-09-09T01:43:57;21.20;1.00
14924;DHT22;7554;43.600;1.480;2022-09-09T01:46:25;21.10;1.00
14924;DHT22;7554;43.600;1.480;2022-09-09T01:48:53;21.10;1.00
14924;DHT22;7554;43.600;1.480;2022-09-09T01:51:22;21.10;1.00
14924;DHT22;7554;43.600;1.480;2022-09-09T01:53:50;21.10;1.00
14924;DHT22;7554;43.600;1.480;2022-09-09T01:56:25;21.00;1.00
14924;DHT22;7554;43.600;1.480;2022-09-09T02:01:56;21.00;1.00
14924;DHT22;7554;43.600;1.480;2022-09-09T02:04:38;20.90;1.00
14924;DHT22;7554;43.600;1.480;2022-09-09T02:07:15;20.80;1.00
14924;DHT22;7554;43.600;1.480;2022-09-09T02:09:49;20.80;1.00
14924;DHT22;7554;43.600;1.480;2022-09-09T02:12:20;20.70;1.00
14924;DHT22;7554;43.600;1.480;2022-09-09T02:14:56;20.60;1.00
14924;DHT22;7554;43.600;1.480;2022-09-09T02:17:27;20.50;1.00
14924;DHT22;7554;43.600;1.480;2022-09-09T02:20:02;20.50;1.00
14924;DHT22;7554;43.600;1.480;2022-09-09T02:22:31;20.50;1.00
14924;DHT22;7554;43.600;1.480;2022-09-09T02:25:00;20.50;1.00
14924;DHT22;7554;43.600;1.480;2022-09-09T02:27:29;20.60;1.00
14924;DHT22;7554;43.600;1.480;2022-09-09T02:29:59;20.60;1.00
14924;DHT22;7554;43.600;1.480;2022-09-09T02:32:29;20.60;1.00
14924;DHT22;7554;43.600;1.480;2022-09-09T02:34:59;20.60;1.00
14924;DHT22;7554;43.600;1.480;2022-09-09T02:37:29;20.60;1.00
14924;DHT22;7554;43.600;1.480;2022-09-09T02:39:59;20.70;1.00
14924;DHT22;7554;43.600;1.480;2022-09-09T02:42:26;20.70;1.00
14924;DHT22;7554;43.600;1.480;2022-09-09T02:44:53;20.60;1.00
14924;DHT22;7554;43.600;1.480;2022-09-09T02:47:27;20.50;1.00
14924;DHT22;7554;43.600;1.480;2022-09-09T02:50:07;20.40;1.00
14924;DHT22;7554;43.600;1.480;2022-09-09T02:52:45;20.30;1.00
14924;DHT22;7554;43.600;1.480;2022-09-09T02:55:20;20.30;1.00
14924;DHT22;7554;43.600;1.480;2022-09-09T02:57:51;20.20;1.00
14924;DHT22;7554;43.600;1.480;2022-09-09T03:00:24;20.30;1.00
14924;DHT22;7554;43.600;1.480;2022-09-09T03:02:53;20.30;1.00
14924;DHT22;7554;43.600;1.480;2022-09-09T03:05:21;20.40;1.00
14924;DHT22;7554;43.600;1.480;2022-09-09T03:07:48;20.40;1.00
14924;DHT22;7554;43.600;1.480;2022-09-09T03:10:16;20.50;1.00
14924;DHT22;7554;43.600;1.480;2022-09-09T03:12:43;20.50;1.00
14924;DHT22;7554;43.600;1.480;2022-09-09T03:15:11;20.50;1.00
14924;DHT22;7554;43.600;1.480;2022-09-09T03:17:38;20.50;1.00
14924;DHT22;7554;43.600;1.480;2022-09-09T03:20:08;20.40;1.00
14924;DHT22;7554;43.600;1.480;2022-09-09T03:22:35;20.40;1.00
14924;DHT22;7554;43.600;1.480;2022-09-09T03:25:03;20.40;1.00
14924;DHT22;7554;43.600;1.480;2022-09-09T03:27:31;20.40;1.00
14924;DHT22;7554;43.600;1.480;2022-09-09T03:29:59;20.50;1.00
14924;DHT22;7554;43.600;1.480;2022-09-09T03:32:29;20.50;1.00
14924;DHT22;7554;43.600;1.480;2022-09-09T03:34:57;20.40;1.00
14924;DHT22;7554;43.600;1.480;2022-09-09T03:37:26;20.30;1.00
14924;DHT22;7554;43.600;1.480;2022-09-09T03:39:53;20.30;1.00
14924;DHT22;7554;43.600;1.480;2022-09-09T03:42:21;20.30;1.00
14924;DHT22;7554;43.600;1.480;2022-09-09T03:44:48;20.30;1.00
14924;DHT22;7554;43.600;1.480;2022-09-09T03:47:17;20.40;1.00
14924;DHT22;7554;43.600;1.480;2022-09-09T03:49:45;20.40;1.00
14924;DHT22;7554;43.600;1.480;2022-09-09T03:52:13;20.40;1.00
14924;DHT22;7554;43.600;1.480;2022-09-09T03:54:42;20.40;1.00
14924;DHT22;7554;43.600;1.480;2022-09-09T03:57:09;20.30;1.00
14924;DHT22;7554;43.600;1.480;2022-09-09T03:59:38;20.10;1.00
14924;DHT22;7554;43.600;1.480;2022-09-09T04:02:05;20.00;1.00
14924;DHT22;7554;43.600;1.480;2022-09-09T04:04:32;20.10;1.00
14924;DHT22;7554;43.600;1.480;2022-09-09T04:07:00;20.20;1.00
14924;DHT22;7554;43.600;1.480;2022-09-09T04:09:27;20.30;1.00
14924;DHT22;7554;43.600;1.480;2022-09-09T04:11:56;20.30;1.00
14924;DHT22;7554;43.600;1.480;2022-09-09T04:14:24;20.30;1.00
14924;DHT22;7554;43.600;1.480;2022-09-09T04:16:55;20.20;99.90
14924;DHT22;7554;43.600;1.480;2022-09-09T04:19:23;20.00;99.90
14924;DHT22;7554;43.600;1.480;2022-09-09T04:21:50;20.00;1.00
14924;DHT22;7554;43.600;1.480;2022-09-09T04:24:18;20.10;1.00
14924;DHT22;7554;43.600;1.480;2022-09-09T04:26:46;20.20;1.00
14924;DHT22;7554;43.600;1.480;2022-09-09T04:29:14;20.20;1.00
14924;DHT22;7554;43.600;1.480;2022-09-09T04:31:42;20.10;1.00
14924;DHT22;7554;43.600;1.480;2022-09-09T04:34:10;20.10;1.00
14924;DHT22;7554;43.600;1.480;2022-09-09T04:36:37;20.10;1.00
14924;DHT22;7554;43.600;1.480;2022-09-09T04:39:06;20.00;1.00
14924;DHT22;7554;43.600;1.480;2022-09-09T04:41:33;20.00;1.00
14924;DHT22;7554;43.600;1.480;2022-09-09T04:44:03;19.90;1.00
14924;DHT22;7554;43.600;1.480;2022-09-09T04:46:32;19.80;1.00
14924;DHT22;7554;43.600;1.480;2022-09-09T04:49:00;19.80;1.00
14924;DHT22;7554;43.600;1.480;2022-09-09T04:51:27;19.80;1.00
14924;DHT22;7554;43.600;1.480;2022-09-09T04:53:57;19.80;1.00
14924;DHT22;7554;43.600;1.480;2022-09-09T04:56:25;19.80;1.00
14924;DHT22;7554;43.600;1.480;2022-09-09T04:58:54;19.90;1.00
14924;DHT22;7554;43.600;1.480;2022-09-09T05:01:22;19.90;1.00
14924;DHT22;7554;43.600;1.480;2022-09-09T05:03:51;19.90;1.00
14924;DHT22;7554;43.600;1.480;2022-09-09T05:06:20;19.90;1.00
14924;DHT22;7554;43.600;1.480;2022-09-09T05:08:48;19.80;1.00
14924;DHT22;7554;43.600;1.480;2022-09-09T05:11:16;19.90;1.00
14924;DHT22;7554;43.600;1.480;2022-09-09T05:13:44;19.90;1.00
14924;DHT22;7554;43.600;1.480;2022-09-09T05:16:12;20.00;1.00
14924;DHT22;7554;43.600;1.480;2022-09-09T05:18:40;20.00;1.00
14924;DHT22;7554;43.600;1.480;2022-09-09T05:21:10;20.00;1.00
14924;DHT22;7554;43.600;1.480;2022-09-09T05:23:37;19.90;1.00
14924;DHT22;7554;43.600;1.480;2022-09-09T05:26:06;19.90;1.00
14924;DHT22;7554;43.600;1.480;2022-09-09T05:28:35;19.80;1.00
14924;DHT22;7554;43.600;1.480;2022-09-09T05:31:04;19.70;1.00
14924;DHT22;7554;43.600;1.480;2022-09-09T05:33:34;19.60;1.00
14924;DHT22;7554;43.600;1.480;2022-09-09T05:36:03;19.50;1.00
14924;DHT22;7554;43.600;1.480;2022-09-09T05:38:32;19.40;1.00
14924;DHT22;7554;43.600;1.480;2022-09-09T05:41:00;19.10;1.00
14924;DHT22;7554;43.600;1.480;2022-09-09T05:43:28;19.00;1.00
14924;DHT22;7554;43.600;1.480;2022-09-09T05:46:01;18.90;1.00
14924;DHT22;7554;43.600;1.480;2022-09-09T05:48:30;18.80;1.00
14924;DHT22;7554;43.600;1.480;2022-09-09T05:50:58;18.60;1.00
14924;DHT22;7554;43.600;1.480;2022-09-09T05:53:26;18.50;1.00
14924;DHT22;7554;43.600;1.480;2022-09-09T05:56:02;18.60;1.00
14924;DHT22;7554;43.600;1.480;2022-09-09T05:58:30;18.50;1.00
14924;DHT22;7554;43.600;1.480;2022-09-09T06:01:02;18.50;1.00
14924;DHT22;7554;43.600;1.480;2022-09-09T06:03:29;18.50;1.00
14924;DHT22;7554;43.600;1.480;2022-09-09T06:05:58;18.50;1.00
14924;DHT22;7554;43.600;1.480;2022-09-09T06:08:26;18.60;1.00
14924;DHT22;7554;43.600;1.480;2022-09-09T06:11:00;18.60;1.00
14924;DHT22;7554;43.600;1.480;2022-09-09T06:13:30;18.60;1.00
14924;DHT22;7554;43.600;1.480;2022-09-09T06:15:58;18.70;1.00
14924;DHT22;7554;43.600;1.480;2022-09-09T06:18:25;18.70;1.00
14924;DHT22;7554;43.600;1.480;2022-09-09T06:20:57;18.50;1.00
14924;DHT22;7554;43.600;1.480;2022-09-09T06:23:25;18.60;1.00
14924;DHT22;7554;43.600;1.480;2022-09-09T06:26:01;18.60;1.00
14924;DHT22;7554;43.600;1.480;2022-09-09T06:28:33;18.50;1.00
14924;DHT22;7554;43.600;1.480;2022-09-09T06:31:01;18.40;1.00
14924;DHT22;7554;43.600;1.480;2022-09-09T06:33:31;18.40;1.00
14924;DHT22;7554;43.600;1.480;2022-09-09T06:36:01;18.50;1.00
14924;DHT22;7554;43.600;1.480;2022-09-09T06:38:29;18.50;1.00
14924;DHT22;7554;43.600;1.480;2022-09-09T06:40:58;18.60;1.00
14924;DHT22;7554;43.600;1.480;2022-09-09T06:43:28;18.60;1.00
14924;DHT22;7554;43.600;1.480;2022-09-09T06:45:58;18.90;1.00
14924;DHT22;7554;43.600;1.480;2022-09-09T06:48:26;19.00;1.00
14924;DHT22;7554;43.600;1.480;2022-09-09T06:51:01;19.10;1.00
14924;DHT22;7554;43.600;1.480;2022-09-09T06:53:29;19.20;1.00
14924;DHT22;7554;43.600;1.480;2022-09-09T06:56:00;19.20;1.00
14924;DHT22;7554;43.600;1.480;2022-09-09T06:58:28;19.20;1.00
14924;DHT22;7554;43.600;1.480;2022-09-09T07:01:03;19.30;1.00
14924;DHT22;7554;43.600;1.480;2022-09-09T07:03:31;19.30;1.00
14924;DHT22;7554;43.600;1.480;2022-09-09T07:05:59;19.30;1.00
14924;DHT22;7554;43.600;1.480;2022-09-09T07:08:27;19.40;1.00
14924;DHT22;7554;43.600;1.480;2022-09-09T07:10:54;19.30;1.00
14924;DHT22;7554;43.600;1.480;2022-09-09T07:13:28;19.50;1.00
14924;DHT22;7554;43.600;1.480;2022-09-09T07:15:55;19.50;1.00
14924;DHT22;7554;43.600;1.480;2022-09-09T07:18:31;19.40;1.00
14924;DHT22;7554;43.600;1.480;2022-09-09T07:20:59;19.50;1.00
14924;DHT22;7554;43.600;1.480;2022-09-09T07:23:26;19.50;1.00
14924;DHT22;7554;43.600;1.480;2022-09-09T07:25:54;19.50;1.00
14924;DHT22;7554;43.600;1.480;2022-09-09T07:28:22;19.50;1.00
14924;DHT22;7554;43.600;1.480;2022-09-09T07:30:53;19.50;1.00
14924;DHT22;7554;43.600;1.480;2022-09-09T07:33:21;19.50;1.00
14924;DHT22;7554;43.600;1.480;2022-09-09T07:35:50;19.40;1.00
14924;DHT22;7554;43.600;1.480;2022-09-09T07:38:17;19.40;1.00
14924;DHT22;7554;43.600;1.480;2022-09-09T07:40:45;19.50;1.00
14924;DHT22;7554;43.600;1.480;2022-09-09T07:43:13;19.50;1.00
14924;DHT22;7554;43.600;1.480;2022-09-09T07:45:42;19.40;1.00
14924;DHT22;7554;43.600;1.480;2022-09-09T07:48:09;19.30;1.00
14924;DHT22;7554;43.600;1.480;2022-09-09T07:50:36;19.30;1.00
14924;DHT22;7554;43.600;1.480;2022-09-09T07:53:06;19.30;1.00
14924;DHT22;7554;43.600;1.480;2022-09-09T07:55:34;19.30;1.00
14924;DHT22;7554;43.600;1.480;2022-09-09T07:58:01;19.20;1.00
14924;DHT22;7554;43.600;1.480;2022-09-09T08:00:28;19.30;1.00
14924;DHT22;7554;43.600;1.480;2022-09-09T08:02:56;19.20;1.00
14924;DHT22;7554;43.600;1.480;2022-09-09T08:05:23;19.20;1.00
14924;DHT22;7554;43.600;1.480;2022-09-09T08:07:50;19.00;1.00
14924;DHT22;7554;43.600;1.480;2022-09-09T08:10:19;19.10;1.00
14924;DHT22;7554;43.600;1.480;2022-09-09T08:12:46;19.10;1.00
14924;DHT22;7554;43.600;1.480;2022-09-09T08:15:14;19.10;1.00
14924;DHT22;7554;43.600;1.480;2022-09-09T08:17:42;19.20;1.00
14924;DHT22;7554;43.600;1.480;2022-09-09T08:20:09;19.30;1.00
14924;DHT22;7554;43.600;1.480;2022-09-09T08:22:37;19.30;1.00
14924;DHT22;7554;43.600;1.480;2022-09-09T08:25:05;19.30;1.00
14924;DHT22;7554;43.600;1.480;2022-09-09T08:27:35;19.40;1.00
14924;DHT22;7554;43.600;1.480;2022-09-09T08:30:03;19.50;1.00
14924;DHT22;7554;43.600;1.480;2022-09-09T08:32:31;19.50;1.00
14924;DHT22;7554;43.600;1.480;2022-09-09T08:34:58;19.60;1.00
14924;DHT22;7554;43.600;1.480;2022-09-09T08:37:25;19.60;1.00
14924;DHT22;7554;43.600;1.480;2022-09-09T08:39:53;19.70;1.00
14924;DHT22;7554;43.600;1.480;2022-09-09T08:42:30;19.70;1.00
14924;DHT22;7554;43.600;1.480;2022-09-09T08:45:18;19.70;1.00
14924;DHT22;7554;43.600;1.480;2022-09-09T08:47:54;19.90;1.00
14924;DHT22;7554;43.600;1.480;2022-09-09T08:50:29;20.10;1.00
14924;DHT22;7554;43.600;1.480;2022-09-09T08:53:02;20.10;1.00
14924;DHT22;7554;43.600;1.480;2022-09-09T08:55:37;20.10;1.00
14924;DHT22;7554;43.600;1.480;2022-09-09T08:58:12;20.10;1.00
14924;DHT22;7554;43.600;1.480;2022-09-09T09:00:51;20.10;1.00
14924;DHT22;7554;43.600;1.480;2022-09-09T09:03:28;20.20;1.00
14924;DHT22;7554;43.600;1.480;2022-09-09T09:06:04;19.80;1.00
14924;DHT22;7554;43.600;1.480;2022-09-09T09:08:38;19.80;1.00
14924;DHT22;7554;43.600;1.480;2022-09-09T09:11:08;19.70;1.00
14924;DHT22;7554;43.600;1.480;2022-09-09T09:13:40;19.20;99.90
14924;DHT22;7554;43.600;1.480;2022-09-09T09:16:18;18.60;1.00
14924;DHT22;7554;43.600;1.480;2022-09-09T09:18:48;18.20;1.00
14924;DHT22;7554;43.600;1.480;2022-09-09T09:21:20;18.20;1.00
14924;DHT22;7554;43.600;1.480;2022-09-09T09:23:56;18.20;1.00
14924;DHT22;7554;43.600;1.480;2022-09-09T09:26:25;17.90;1.00
14924;DHT22;7554;43.600;1.480;2022-09-09T09:28:56;18.00;1.00
14924;DHT22;7554;43.600;1.480;2022-09-09T09:31:25;18.00;1.00
14924;DHT22;7554;43.600;1.480;2022-09-09T09:33:54;17.90;99.90
14924;DHT22;7554;43.600;1.480;2022-09-09T09:36:25;18.10;99.90
14924;DHT22;7554;43.600;1.480;2022-09-09T09:39:02;18.10;1.00
14924;DHT22;7554;43.600;1.480;2022-09-09T09:41:33;17.90;1.00
14924;DHT22;7554;43.600;1.480;2022-09-09T09:44:02;18.20;1.00
14924;DHT22;7554;43.600;1.480;2022-09-09T09:46:32;18.20;1.00
14924;DHT22;7554;43.600;1.480;2022-09-09T09:49:00;18.10;1.00
14924;DHT22;7554;43.600;1.480;2022-09-09T09:51:29;18.00;1.00
14924;DHT22;7554;43.600;1.480;2022-09-09T09:54:13;17.90;99.90
14924;DHT22;7554;43.600;1.480;2022-09-09T09:56:43;18.10;99.90
14924;DHT22;7554;43.600;1.480;2022-09-09T09:59:21;18.20;99.90
14924;DHT22;7554;43.600;1.480;2022-09-09T10:01:50;18.10;99.90
14924;DHT22;7554;43.600;1.480;2022-09-09T10:04:19;17.90;99.90
14924;DHT22;7554;43.600;1.480;2022-09-09T10:06:49;17.80;99.90
14924;DHT22;7554;43.600;1.480;2022-09-09T10:09:22;17.80;99.90
14924;DHT22;7554;43.600;1.480;2022-09-09T10:11:56;17.90;99.90
14924;DHT22;7554;43.600;1.480;2022-09-09T10:14:28;17.90;1.00
14924;DHT22;7554;43.600;1.480;2022-09-09T10:17:11;17.90;99.90
14924;DHT22;7554;43.600;1.480;2022-09-09T10:19:44;18.10;1.00
14924;DHT22;7554;43.600;1.480;2022-09-09T10:22:26;17.90;99.90
14924;DHT22;7554;43.600;1.480;2022-09-09T10:25:20;17.90;1.00
14924;DHT22;7554;43.600;1.480;2022-09-09T10:30:58;18.00;99.90
14924;DHT22;7554;43.600;1.480;2022-09-09T10:33:39;18.10;99.90
14924;DHT22;7554;43.600;1.480;2022-09-09T10:36:13;18.10;99.90
14924;DHT22;7554;43.600;1.480;2022-09-09T10:38:45;18.20;1.00
14924;DHT22;7554;43.600;1.480;2022-09-09T10:41:19;18.10;99.90
14924;DHT22;7554;43.600;1.480;2022-09-09T10:50:18;18.30;1.00
14924;DHT22;7554;43.600;1.480;2022-09-09T10:52:51;18.60;1.00
14924;DHT22;7554;43.600;1.480;2022-09-09T10:55:27;18.70;1.00
14924;DHT22;7554;43.600;1.480;2022-09-09T10:57:57;18.70;1.00
14924;DHT22;7554;43.600;1.480;2022-09-09T11:00:30;18.80;1.00
14924;DHT22;7554;43.600;1.480;2022-09-09T11:03:03;18.70;1.00
14924;DHT22;7554;43.600;1.480;2022-09-09T11:05:38;18.60;1.00
14924;DHT22;7554;43.600;1.480;2022-09-09T11:08:12;18.70;1.00
14924;DHT22;7554;43.600;1.480;2022-09-09T11:10:45;18.80;1.00
14924;DHT22;7554;43.600;1.480;2022-09-09T11:13:20;19.00;1.00
14924;DHT22;7554;43.600;1.480;2022-09-09T11:15:55;18.90;1.00
14924;DHT22;7554;43.600;1.480;2022-09-09T11:18:29;19.30;1.00
14924;DHT22;7554;43.600;1.480;2022-09-09T11:21:02;19.60;1.00
14924;DHT22;7554;43.600;1.480;2022-09-09T11:23:38;19.90;99.90
14924;DHT22;7554;43.600;1.480;2022-09-09T11:26:11;19.80;1.00
14924;DHT22;7554;43.600;1.480;2022-09-09T11:28:51;20.30;99.90
14924;DHT22;7554;43.600;1.480;2022-09-09T11:31:38;20.60;1.00
14924;DHT22;7554;43.600;1.480;2022-09-09T11:34:22;20.50;1.00
14924;DHT22;7554;43.600;1.480;2022-09-09T11:37:08;20.60;99.90
14924;DHT22;7554;43.600;1.480;2022-09-09T11:40:08;20.30;99.90
14924;DHT22;7554;43.600;1.480;2022-09-09T11:42:36;20.50;99.90
14924;DHT22;7554;43.600;1.480;2022-09-09T11:45:15;20.70;99.90
14924;DHT22;7554;43.600;1.480;2022-09-09T11:47:52;20.70;80.70
14924;DHT22;7554;43.600;1.480;2022-09-09T11:50:44;20.40;2.00
14924;DHT22;7554;43.600;1.480;2022-09-09T11:53:23;20.80;1.00
14924;DHT22;7554;43.600;1.480;2022-09-09T11:56:02;20.90;1.00
14924;DHT22;7554;43.600;1.480;2022-09-09T11:58:37;20.70;1.00
14924;DHT22;7554;43.600;1.480;2022-09-09T12:04:32;21.10;1.00
14924;DHT22;7554;43.600;1.480;2022-09-09T12:07:02;21.70;1.00
14924;DHT22;7554;43.600;1.480;2022-09-09T12:09:44;22.00;1.00
14924;DHT22;7554;43.600;1.480;2022-09-09T12:12:28;22.10;1.00
14924;DHT22;7554;43.600;1.480;2022-09-09T12:15:02;22.20;1.00
14924;DHT22;7554;43.600;1.480;2022-09-09T12:17:31;22.20;1.00
14924;DHT22;7554;43.600;1.480;2022-09-09T12:20:11;22.20;1.00
14924;DHT22;7554;43.600;1.480;2022-09-09T12:22:47;22.30;1.00
14924;DHT22;7554;43.600;1.480;2022-09-09T12:25:26;22.50;1.00
14924;DHT22;7554;43.600;1.480;2022-09-09T12:28:05;22.60;1.00
14924;DHT22;7554;43.600;1.480;2022-09-09T12:30:43;22.90;1.00
14924;DHT22;7554;43.600;1.480;2022-09-09T12:33:17;23.00;1.00
14924;DHT22;7554;43.600;1.480;2022-09-09T12:35:47;23.20;1.00
14924;DHT22;7554;43.600;1.480;2022-09-09T12:38:22;23.40;1.00
14924;DHT22;7554;43.600;1.480;2022-09-09T12:40:57;23.40;1.00
14924;DHT22;7554;43.600;1.480;2022-09-09T12:43:26;23.30;1.00
14924;DHT22;7554;43.600;1.480;2022-09-09T12:45:56;23.30;1.00
14924;DHT22;7554;43.600;1.480;2022-09-09T12:48:31;23.40;1.00
14924;DHT22;7554;43.600;1.480;2022-09-09T12:50:59;23.40;1.00
14924;DHT22;7554;43.600;1.480;2022-09-09T12:53:31;23.10;1.00
14924;DHT22;7554;43.600;1.480;2022-09-09T12:56:03;23.20;1.00
14924;DHT22;7554;43.600;1.480;2022-09-09T12:58:33;23.10;1.00
14924;DHT22;7554;43.600;1.480;2022-09-09T13:01:02;23.00;1.00
14924;DHT22;7554;43.600;1.480;2022-09-09T13:03:31;22.90;1.00
14924;DHT22;7554;43.600;1.480;2022-09-09T13:06:10;23.00;1.00
14924;DHT22;7554;43.600;1.480;2022-09-09T13:08:38;23.10;1.00
14924;DHT22;7554;43.600;1.480;2022-09-09T13:11:12;23.30;1.00
14924;DHT22;7554;43.600;1.480;2022-09-09T13:13:42;23.40;1.00
14924;DHT22;7554;43.600;1.480;2022-09-09T13:16:20;23.60;1.00
14924;DHT22;7554;43.600;1.480;2022-09-09T13:18:48;23.60;1.00
14924;DHT22;7554;43.600;1.480;2022-09-09T13:21:16;23.70;1.00
14924;DHT22;7554;43.600;1.480;2022-09-09T13:23:49;23.50;1.00
14924;DHT22;7554;43.600;1.480;2022-09-09T13:26:24;23.50;1.00
14924;DHT22;7554;43.600;1.480;2022-09-09T13:28:53;23.20;1.00
14924;DHT22;7554;43.600;1.480;2022-09-09T13:31:23;23.20;1.00
14924;DHT22;7554;43.600;1.480;2022-09-09T13:33:53;23.50;1.00
14924;DHT22;7554;43.600;1.480;2022-09-09T13:36:29;23.20;1.00
14924;DHT22;7554;43.600;1.480;2022-09-09T13:38:58;22.80;1.00
14924;DHT22;7554;43.600;1.480;2022-09-09T13:41:32;22.60;1.00
14924;DHT22;7554;43.600;1.480;2022-09-09T13:44:00;22.70;1.00
14924;DHT22;7554;43.600;1.480;2022-09-09T13:46:33;22.50;1.00
14924;DHT22;7554;43.600;1.480;2022-09-09T13:49:02;22.60;1.00
14924;DHT22;7554;43.600;1.480;2022-09-09T13:51:46;22.50;1.00
14924;DHT22;7554;43.600;1.480;2022-09-09T13:54:17;22.50;1.00
14924;DHT22;7554;43.600;1.480;2022-09-09T13:56:46;22.70;1.00
14924;DHT22;7554;43.600;1.480;2022-09-09T13:59:16;22.50;1.00
14924;DHT22;7554;43.600;1.480;2022-09-09T14:01:45;22.50;1.00
14924;DHT22;7554;43.600;1.480;2022-09-09T14:04:13;22.60;1.00
14924;DHT22;7554;43.600;1.480;2022-09-09T14:06:42;22.60;1.00
14924;DHT22;7554;43.600;1.480;2022-09-09T14:09:12;22.60;1.00
14924;DHT22;7554;43.600;1.480;2022-09-09T14:11:41;22.30;1.00
14924;DHT22;7554;43.600;1.480;2022-09-09T14:14:10;22.50;1.00
14924;DHT22;7554;43.600;1.480;2022-09-09T14:16:37;22.70;1.00
14924;DHT22;7554;43.600;1.480;2022-09-09T14:19:04;22.90;1.00
14924;DHT22;7554;43.600;1.480;2022-09-09T14:21:32;23.00;1.00
14924;DHT22;7554;43.600;1.480;2022-09-09T14:23:59;23.10;1.00
14924;DHT22;7554;43.600;1.480;2022-09-09T14:26:27;23.40;1.00
14924;DHT22;7554;43.600;1.480;2022-09-09T14:28:54;23.60;1.00
14924;DHT22;7554;43.600;1.480;2022-09-09T14:31:23;23.90;1.00
14924;DHT22;7554;43.600;1.480;2022-09-09T14:33:51;23.70;1.00
14924;DHT22;7554;43.600;1.480;2022-09-09T14:36:19;23.50;1.00
14924;DHT22;7554;43.600;1.480;2022-09-09T14:38:46;23.20;1.00
14924;DHT22;7554;43.600;1.480;2022-09-09T14:41:15;23.10;1.00
14924;DHT22;7554;43.600;1.480;2022-09-09T14:43:44;23.00;1.00
14924;DHT22;7554;43.600;1.480;2022-09-09T14:46:13;23.00;1.00
14924;DHT22;7554;43.600;1.480;2022-09-09T14:48:42;22.90;1.00
14924;DHT22;7554;43.600;1.480;2022-09-09T14:51:12;22.90;1.00
14924;DHT22;7554;43.600;1.480;2022-09-09T14:53:41;23.00;1.00
14924;DHT22;7554;43.600;1.480;2022-09-09T14:56:10;23.10;1.00
14924;DHT22;7554;43.600;1.480;2022-09-09T14:58:38;23.10;1.00
14924;DHT22;7554;43.600;1.480;2022-09-09T15:01:07;23.00;1.00
14924;DHT22;7554;43.600;1.480;2022-09-09T15:03:35;22.80;1.00
14924;DHT22;7554;43.600;1.480;2022-09-09T15:06:09;22.80;1.00
14924;DHT22;7554;43.600;1.480;2022-09-09T15:08:37;22.80;1.00
14924;DHT22;7554;43.600;1.480;2022-09-09T15:11:06;23.00;1.00
14924;DHT22;7554;43.600;1.480;2022-09-09T15:13:34;22.90;1.00
14924;DHT22;7554;43.600;1.480;2022-09-09T15:16:07;22.80;1.00
14924;DHT22;7554;43.600;1.480;2022-09-09T15:18:34;22.90;1.00
14924;DHT22;7554;43.600;1.480;2022-09-09T15:21:10;23.10;1.00
14924;DHT22;7554;43.600;1.480;2022-09-09T15:23:38;23.10;1.00
14924;DHT22;7554;43.600;1.480;2022-09-09T15:26:06;23.00;1.00
14924;DHT22;7554;43.600;1.480;2022-09-09T15:28:35;23.00;1.00
14924;DHT22;7554;43.600;1.480;2022-09-09T15:31:07;23.00;1.00
14924;DHT22;7554;43.600;1.480;2022-09-09T15:33:34;22.90;1.00
14924;DHT22;7554;43.600;1.480;2022-09-09T15:36:14;22.80;1.00
14924;DHT22;7554;43.600;1.480;2022-09-09T15:38:42;22.70;1.00
14924;DHT22;7554;43.600;1.480;2022-09-09T15:41:09;22.60;1.00
14924;DHT22;7554;43.600;1.480;2022-09-09T15:43:37;22.50;1.00
14924;DHT22;7554;43.600;1.480;2022-09-09T15:46:22;22.50;1.00
14924;DHT22;7554;43.600;1.480;2022-09-09T15:48:53;22.60;1.00
14924;DHT22;7554;43.600;1.480;2022-09-09T15:51:23;22.70;1.00
14924;DHT22;7554;43.600;1.480;2022-09-09T15:53:55;22.70;1.00
14924;DHT22;7554;43.600;1.480;2022-09-09T15:56:23;22.60;1.00
14924;DHT22;7554;43.600;1.480;2022-09-09T15:58:51;22.60;1.00
14924;DHT22;7554;43.600;1.480;2022-09-09T16:01:18;22.60;1.00
14924;DHT22;7554;43.600;1.480;2022-09-09T16:03:46;22.60;1.00
14924;DHT22;7554;43.600;1.480;2022-09-09T16:06:16;22.50;1.00
14924;DHT22;7554;43.600;1.480;2022-09-09T16:08:46;22.50;1.00
14924;DHT22;7554;43.600;1.480;2022-09-09T16:11:17;22.50;1.00
14924;DHT22;7554;43.600;1.480;2022-09-09T16:13:46;22.50;1.00
14924;DHT22;7554;43.600;1.480;2022-09-09T16:16:15;22.50;1.00
14924;DHT22;7554;43.600;1.480;2022-09-09T16:18:45;22.50;1.00
14924;DHT22;7554;43.600;1.480;2022-09-09T16:21:15;22.50;1.00
14924;DHT22;7554;43.600;1.480;2022-09-09T16:23:44;22.50;1.00
14924;DHT22;7554;43.600;1.480;2022-09-09T16:26:14;22.60;1.00
14924;DHT22;7554;43.600;1.480;2022-09-09T16:28:42;22.70;1.00
14924;DHT22;7554;43.600;1.480;2022-09-09T16:31:11;22.80;1.00
14924;DHT22;7554;43.600;1.480;2022-09-09T16:33:40;23.00;1.00
14924;DHT22;7554;43.600;1.480;2022-09-09T16:36:09;23.00;1.00
14924;DHT22;7554;43.600;1.480;2022-09-09T16:38:38;23.00;1.00
14924;DHT22;7554;43.600;1.480;2022-09-09T16:41:08;23.10;1.00